Terminal Aerodrome Forecast
Issued by NWS

Current Version | Previous Version | Text Only | Print | Product List | Glossary Off
Versions: 1 2 3 4 5 6 7 8 9 10 11 12 13 14 15 16 17 18 19 20 21

000
FTUS41 KRLX 301744
TAFCKB
TAF
KCKB 301744Z 3018/0118 24008KT P6SM SCT035
     FM302100 31015G23KT P6SM VCTS BKN035CB
     FM010000 19004KT P6SM BKN035
     FM010600 00000KT 5SM BR BKN035
     FM010900 VRB03KT 5SM BR BKN015
     FM011300 22004KT P6SM SCT020=

USA.gov is the U.S. government's official web portal to all federal, state and local government web resources and services.